Arkansas City, Arkansas
Current Conditions -  °F | °C
As of 3:53 AM on Friday 19 Dec 2014 (Local Time) from KGLH Reporting Station
Overcast Overcast  
Wind Chill: 42°   Ceiling: 4400
Heat Index: 46°   Visibility: 9mi
Dew Point: 41°   Wind: 8mph
Humidity: 83%   Direction: 40°NE
Pressure: 30.17"   Gusts: NA
Location:  33.61°N, 91.21°W
Report Text: KGLH 190953Z AUTO 04007KT 9SM OVC044 08/05 A3017 RMK AO2 SLP225 T00780050
Loading
Personal Weather Stations






























Interactive Weather Map New forecast layout! Learn more

10-Day Weather Forecast

Advertisements
Track Severe Weather on mobile